createdAt,value
2022-10-23T00:01:27.067Z,99116.56
2022-10-23T00:03:58.069Z,99117.75
2022-10-23T00:06:27.726Z,99104.63
2022-10-23T00:08:57.724Z,99107.09
2022-10-23T00:11:28.871Z,99103.88
2022-10-23T00:13:59.389Z,99092.47
2022-10-23T00:16:28.240Z,99092.66
2022-10-23T00:18:57.016Z,99081.53
2022-10-23T00:21:26.444Z,99080.16
2022-10-23T00:23:55.088Z,99067.53
2022-10-23T00:26:25.151Z,99073.56
2022-10-23T00:28:55.417Z,99072.84
2022-10-23T00:31:25.276Z,99088.97
2022-10-23T00:33:54.392Z,99088.97
2022-10-23T00:36:23.320Z,99096.25
2022-10-23T00:38:52.512Z,99104.38
2022-10-23T00:41:22.700Z,99104.91
2022-10-23T00:44:05.255Z,99095.09
2022-10-23T00:46:34.036Z,99099.34
2022-10-23T00:49:03.471Z,99093.50
2022-10-23T00:51:37.367Z,99093.50
2022-10-23T00:54:23.547Z,99085.63
2022-10-23T00:56:54.891Z,99096.31
2022-10-23T00:59:25.089Z,99087.88
2022-10-23T01:01:53.772Z,99079.84
2022-10-23T01:04:22.776Z,99079.06
2022-10-23T01:06:55.047Z,99082.69
2022-10-23T01:09:29.676Z,99084.69
2022-10-23T01:12:02.416Z,99088.16
2022-10-23T01:14:35.792Z,99092.66
2022-10-23T01:17:07.639Z,99085.97
2022-10-23T01:19:48.065Z,99083.09
2022-10-23T01:22:29.428Z,99081.97
2022-10-23T01:24:59.858Z,99077.81
2022-10-23T01:27:32.110Z,99079.25
2022-10-23T01:30:06.694Z,99074.59
2022-10-23T01:32:39.294Z,99070.53
2022-10-23T01:35:13.193Z,99073.16
2022-10-23T01:37:44.399Z,99070.97
2022-10-23T01:40:16.004Z,99062.69
2022-10-23T01:42:50.395Z,99057.00
2022-10-23T01:45:22.605Z,99063.31
2022-10-23T01:47:52.035Z,99061.13
2022-10-23T01:50:21.511Z,99052.88
2022-10-23T01:52:50.204Z,99053.53
2022-10-23T01:55:18.853Z,99051.13
2022-10-23T01:57:49.753Z,99049.28
2022-10-23T02:00:20.706Z,99049.31
2022-10-23T02:02:50.228Z,99048.13
2022-10-23T02:05:20.622Z,99042.09
2022-10-23T02:07:49.472Z,99048.50
2022-10-23T02:10:18.623Z,99040.56
2022-10-23T02:12:52.650Z,99034.34
2022-10-23T02:15:25.712Z,99038.31
2022-10-23T02:18:02.839Z,99029.50
2022-10-23T02:20:37.790Z,99033.16
2022-10-23T02:23:17.133Z,99031.09
2022-10-23T02:25:51.428Z,99018.69
2022-10-23T02:28:26.284Z,99020.88
2022-10-23T02:30:56.354Z,99030.53
2022-10-23T02:33:27.355Z,99022.31
2022-10-23T02:35:55.963Z,99019.91
2022-10-23T02:38:31.156Z,99012.81
2022-10-23T02:41:06.016Z,99007.22
2022-10-23T02:43:39.650Z,99010.22
2022-10-23T02:46:13.061Z,98999.06
2022-10-23T02:48:45.036Z,99008.09
2022-10-23T02:51:16.086Z,98990.66
2022-10-23T02:53:49.081Z,98984.38
2022-10-23T02:56:22.638Z,98994.25
2022-10-23T02:59:01.265Z,98984.38
2022-10-23T03:01:35.323Z,98987.75
2022-10-23T03:04:06.314Z,98988.78
2022-10-23T03:06:34.929Z,98985.13
2022-10-23T03:09:05.884Z,98981.56
2022-10-23T03:11:35.229Z,98990.81
2022-10-23T03:14:05.172Z,98976.13
2022-10-23T03:16:33.782Z,98979.75
2022-10-23T03:19:02.381Z,98983.63
2022-10-23T03:21:31.002Z,98979.44
2022-10-23T03:23:59.712Z,98986.22
2022-10-23T03:26:28.250Z,98982.38
2022-10-23T03:28:56.815Z,98972.63
2022-10-23T03:31:26.777Z,98973.03
2022-10-23T03:33:55.346Z,98976.00
2022-10-23T03:36:23.921Z,98971.81
2022-10-23T03:38:53.298Z,98971.44
2022-10-23T03:41:21.877Z,98974.22
2022-10-23T03:43:50.428Z,98974.16
2022-10-23T03:46:19.076Z,98969.16
2022-10-23T03:48:48.983Z,98964.75
2022-10-23T03:51:17.569Z,98966.72
2022-10-23T03:53:46.173Z,98963.25
2022-10-23T03:56:14.713Z,98955.25
2022-10-23T03:58:43.279Z,98951.03
2022-10-23T04:01:11.889Z,98952.44
2022-10-23T04:03:40.528Z,98957.25
2022-10-23T04:06:10.548Z,98953.44
2022-10-23T04:08:39.107Z,98955.28
2022-10-23T04:11:07.654Z,98956.94
2022-10-23T04:13:36.245Z,98962.50
2022-10-23T04:16:05.183Z,98966.72
2022-10-23T04:18:33.745Z,98966.28
2022-10-23T04:21:02.390Z,98962.28
2022-10-23T04:23:32.296Z,98968.19
2022-10-23T04:26:00.978Z,98967.19
2022-10-23T04:28:29.812Z,98969.63
2022-10-23T04:30:58.369Z,98964.97
2022-10-23T04:33:27.094Z,98959.34
2022-10-23T04:35:55.717Z,98965.34
2022-10-23T04:38:24.281Z,98970.41
2022-10-23T04:40:54.195Z,98967.38
2022-10-23T04:43:22.783Z,98974.22
2022-10-23T04:45:51.521Z,98967.38
2022-10-23T04:48:20.078Z,98967.78
2022-10-23T04:50:57.248Z,98957.47
2022-10-23T04:53:26.130Z,98964.53
2022-10-23T04:55:57.790Z,98965.31
2022-10-23T04:58:27.577Z,98963.53
2022-10-23T05:00:56.560Z,98968.75
2022-10-23T05:03:26.734Z,98966.53
2022-10-23T05:05:56.537Z,98965.94
2022-10-23T05:08:25.322Z,98963.31
2022-10-23T05:10:53.853Z,98958.47
2022-10-23T05:13:23.840Z,98958.44
2022-10-23T05:15:52.970Z,98961.94
2022-10-23T05:18:24.671Z,98956.94
2022-10-23T05:20:56.966Z,98955.69
2022-10-23T05:23:26.430Z,98952.25
2022-10-23T05:25:55.016Z,98947.22
2022-10-23T05:28:24.930Z,98944.44
2022-10-23T05:30:53.516Z,98951.06
2022-10-23T05:33:22.090Z,98951.34
2022-10-23T05:35:50.632Z,98961.38
2022-10-23T05:38:19.305Z,98947.06
2022-10-23T05:40:47.993Z,98945.41
2022-10-23T05:43:16.599Z,98944.72
2022-10-23T05:45:46.667Z,98941.69
2022-10-23T05:48:22.875Z,98946.25
2022-10-23T05:51:06.199Z,98952.34
2022-10-23T05:53:36.261Z,98936.00
2022-10-23T05:56:08.531Z,98936.81
2022-10-23T05:58:37.165Z,98936.88
2022-10-23T06:01:08.198Z,98935.69
2022-10-23T06:03:37.505Z,98931.09
2022-10-23T06:06:07.265Z,98922.63
2022-10-23T06:08:36.335Z,98931.66
2022-10-23T06:11:09.581Z,98932.44
2022-10-23T06:13:38.392Z,98937.06
2022-10-23T06:16:12.377Z,98937.28
2022-10-23T06:18:41.278Z,98928.38
2022-10-23T06:21:10.586Z,98923.25
2022-10-23T06:23:40.582Z,98920.22
2022-10-23T06:26:10.929Z,98925.88
2022-10-23T06:28:39.864Z,98922.66
2022-10-23T06:31:09.497Z,98918.81
2022-10-23T06:33:39.761Z,98927.66
2022-10-23T06:36:10.360Z,98919.38
2022-10-23T06:38:40.360Z,98924.81
2022-10-23T06:41:13.634Z,98917.97
2022-10-23T06:43:42.241Z,98920.00
2022-10-23T06:46:10.891Z,98908.34
2022-10-23T06:48:42.363Z,98917.75
2022-10-23T06:51:13.572Z,98924.38
2022-10-23T06:53:42.224Z,98922.72
2022-10-23T06:56:11.697Z,98919.16
2022-10-23T06:58:41.013Z,98928.97
2022-10-23T07:01:11.888Z,98919.91
2022-10-23T07:03:41.884Z,98915.66
2022-10-23T07:06:11.643Z,98915.91
2022-10-23T07:08:40.345Z,98913.88
2022-10-23T07:11:13.315Z,98925.09
2022-10-23T07:13:42.585Z,98919.41
2022-10-23T07:16:13.210Z,98919.16
2022-10-23T07:18:43.370Z,98920.13
2022-10-23T07:21:12.217Z,98917.91
2022-10-23T07:23:41.075Z,98922.31
2022-10-23T07:26:11.484Z,98921.88
2022-10-23T07:28:41.330Z,98928.84
2022-10-23T07:31:10.461Z,98913.94
2022-10-23T07:33:39.078Z,98915.63
2022-10-23T07:36:10.316Z,98924.19
2022-10-23T07:38:38.927Z,98920.63
2022-10-23T07:41:09.024Z,98914.28
2022-10-23T07:43:40.283Z,98923.41
2022-10-23T07:46:09.927Z,98924.16
2022-10-23T07:48:38.909Z,98911.06
2022-10-23T07:51:10.695Z,98932.06
2022-10-23T07:53:40.004Z,98929.00
2022-10-23T07:56:14.188Z,98936.28
2022-10-23T07:58:42.793Z,98939.69
2022-10-23T08:01:17.882Z,98923.63
2022-10-23T08:03:46.870Z,98920.47
2022-10-23T08:06:16.856Z,98913.44
2022-10-23T08:11:24.818Z,98913.38
2022-10-23T08:13:54.168Z,98910.28
2022-10-23T08:16:23.290Z,98904.91
2022-10-23T08:18:52.258Z,98896.75
2022-10-23T08:21:22.282Z,98900.53
2022-10-23T08:23:53.828Z,98894.16
2022-10-23T08:26:22.501Z,98884.13
2022-10-23T08:28:51.304Z,98884.63
2022-10-23T08:31:21.652Z,98882.69
2022-10-23T08:36:26.304Z,98884.72
2022-10-23T08:38:56.442Z,98880.03
2022-10-23T08:41:27.195Z,98871.16
2022-10-23T08:43:59.303Z,98866.16
2022-10-23T08:46:30.129Z,98864.47
2022-10-23T08:49:09.201Z,98855.00
2022-10-23T08:51:42.428Z,98855.94
2022-10-23T08:54:15.235Z,98863.25
2022-10-23T08:56:47.665Z,98860.63
2022-10-23T08:59:20.557Z,98862.78
2022-10-23T09:01:52.256Z,98857.75
2022-10-23T09:04:21.120Z,98864.22
2022-10-23T09:06:55.260Z,98868.00
2022-10-23T09:09:49.937Z,98856.69
2022-10-23T09:12:21.857Z,98846.53
2022-10-23T09:15:14.235Z,98849.47
2022-10-23T09:17:44.350Z,98849.44
2022-10-23T09:20:19.289Z,98850.00
2022-10-23T09:22:50.361Z,98850.22
2022-10-23T09:25:21.082Z,98852.00
2022-10-23T09:27:53.226Z,98861.91
2022-10-23T09:30:29.941Z,98846.66
2022-10-23T09:32:58.818Z,98846.06
2022-10-23T09:35:31.483Z,98840.72
2022-10-23T09:38:01.432Z,98838.53
2022-10-23T09:40:34.405Z,98841.84
2022-10-23T09:43:12.246Z,98828.94
2022-10-23T09:45:42.466Z,98822.06
2022-10-23T09:48:15.528Z,98814.13
2022-10-23T09:50:52.616Z,98801.53
2022-10-23T09:53:32.434Z,98806.44
2022-10-23T09:56:03.572Z,98807.09
2022-10-23T09:58:35.690Z,98795.56
2022-10-23T10:01:04.786Z,98796.97
2022-10-23T10:03:33.649Z,98807.88
2022-10-23T10:06:03.449Z,98809.81
2022-10-23T10:08:44.223Z,98809.63
2022-10-23T10:11:17.451Z,98812.31
2022-10-23T10:13:58.719Z,98810.56
2022-10-23T10:16:34.199Z,98814.09
2022-10-23T10:19:08.763Z,98804.94
2022-10-23T10:21:41.214Z,98807.66
2022-10-23T10:24:17.263Z,98806.94
2022-10-23T10:26:51.461Z,98802.00
2022-10-23T10:29:30.701Z,98802.88
2022-10-23T10:32:07.449Z,98796.84
2022-10-23T10:34:43.022Z,98787.19
2022-10-23T10:37:20.340Z,98787.25
2022-10-23T10:39:55.519Z,98787.34
2022-10-23T10:42:37.893Z,98785.53
2022-10-23T10:45:19.617Z,98765.22
2022-10-23T10:47:59.439Z,98767.19
2022-10-23T10:50:32.360Z,98738.91
2022-10-23T10:53:08.473Z,98732.84
2022-10-23T10:55:40.178Z,98744.22
2022-10-23T10:58:15.648Z,98751.09
2022-10-23T11:00:45.334Z,98758.00
2022-10-23T11:03:26.265Z,98761.16
2022-10-23T11:05:56.106Z,98760.91
2022-10-23T11:08:36.855Z,98749.03
2022-10-23T11:11:18.422Z,98761.72
2022-10-23T11:13:47.099Z,98754.31
2022-10-23T11:16:19.716Z,98745.31
2022-10-23T11:18:58.037Z,98738.94
2022-10-23T11:21:32.898Z,98737.88
2022-10-23T11:24:16.284Z,98725.22
2022-10-23T11:26:56.086Z,98729.41
2022-10-23T11:29:36.213Z,98715.66
2022-10-23T11:32:15.566Z,98710.63
2022-10-23T11:34:59.100Z,98718.06
2022-10-23T11:37:27.914Z,98698.75
2022-10-23T11:40:03.874Z,98695.28
2022-10-23T11:42:35.785Z,98697.41
2022-10-23T11:45:04.838Z,98694.78
2022-10-23T11:47:39.644Z,98689.22
2022-10-23T11:50:17.925Z,98686.03
2022-10-23T11:53:15.916Z,98687.63
2022-10-23T11:55:58.819Z,98691.59
2022-10-23T11:58:33.037Z,98689.22
2022-10-23T12:01:05.214Z,98679.69
2022-10-23T12:03:41.824Z,98676.22
2022-10-23T12:06:24.024Z,98671.47
2022-10-23T12:08:55.706Z,98667.25
2022-10-23T12:11:27.969Z,98664.31
2022-10-23T12:13:58.015Z,98659.53
2022-10-23T12:16:36.099Z,98657.94
2022-10-23T12:19:19.576Z,98649.44
2022-10-23T12:21:48.319Z,98644.66
2022-10-23T12:24:31.881Z,98649.94
2022-10-23T12:27:07.459Z,98649.38
2022-10-23T12:29:47.251Z,98643.03
2022-10-23T12:32:31.593Z,98635.09
2022-10-23T12:35:16.438Z,98635.38
2022-10-23T12:38:04.152Z,98635.06
2022-10-23T12:40:32.754Z,98623.09
2022-10-23T12:43:02.223Z,98622.81
2022-10-23T12:45:34.024Z,98613.22
2022-10-23T12:48:02.652Z,98612.63
2022-10-23T12:53:08.650Z,98603.00
2022-10-23T12:55:48.616Z,98603.97
2022-10-23T12:58:21.484Z,98588.34
2022-10-23T13:00:55.649Z,98596.22
2022-10-23T13:03:25.693Z,98597.44
2022-10-23T13:05:56.040Z,98580.13
2022-10-23T13:08:29.340Z,98581.38
2022-10-23T13:10:58.666Z,98561.97
2022-10-23T13:13:27.966Z,98561.41
2022-10-23T13:15:58.302Z,98551.03
2022-10-23T13:18:26.973Z,98553.91
2022-10-23T13:20:59.704Z,98564.28
2022-10-23T13:23:32.218Z,98566.91
2022-10-23T13:26:01.901Z,98566.91
2022-10-23T13:28:31.094Z,98558.69
2022-10-23T13:31:14.531Z,98566.34
2022-10-23T13:33:44.955Z,98554.19
2022-10-23T13:36:24.567Z,98553.72
2022-10-23T13:39:04.931Z,98562.31
2022-10-23T13:41:38.177Z,98565.50
2022-10-23T13:44:07.298Z,98557.34
2022-10-23T13:46:37.293Z,98562.09
2022-10-23T13:49:06.001Z,98554.72
2022-10-23T13:51:42.482Z,98553.19
2022-10-23T13:54:16.667Z,98548.22
2022-10-23T13:56:45.410Z,98551.75
2022-10-23T13:59:14.184Z,98545.69
2022-10-23T14:01:45.481Z,98553.16
2022-10-23T14:04:15.592Z,98545.28
2022-10-23T14:06:44.607Z,98550.13
2022-10-23T14:09:14.567Z,98548.03
2022-10-23T14:11:43.576Z,98542.31
2022-10-23T14:14:12.236Z,98546.78
2022-10-23T14:16:40.884Z,98542.59
2022-10-23T14:19:11.943Z,98542.84
2022-10-23T14:21:40.665Z,98545.00
2022-10-23T14:24:10.118Z,98541.59
2022-10-23T14:26:38.831Z,98531.78
2022-10-23T14:29:10.309Z,98517.56
2022-10-23T14:31:42.698Z,98527.88
2022-10-23T14:34:13.475Z,98523.72
2022-10-23T14:36:50.164Z,98534.56
2022-10-23T14:39:19.680Z,98535.13
2022-10-23T14:41:48.357Z,98531.97
2022-10-23T14:44:16.970Z,98542.06
2022-10-23T14:46:45.619Z,98539.41
2022-10-23T14:49:15.657Z,98535.72
2022-10-23T14:51:44.327Z,98531.25
2022-10-23T14:54:12.995Z,98525.94
2022-10-23T14:56:41.641Z,98527.28
2022-10-23T14:59:11.612Z,98521.75
2022-10-23T15:01:45.179Z,98513.56
2022-10-23T15:04:17.387Z,98524.72
2022-10-23T15:06:47.091Z,98515.47
2022-10-23T15:09:16.460Z,98503.59
2022-10-23T15:11:45.067Z,98512.84
2022-10-23T15:14:13.917Z,98500.38
2022-10-23T15:16:42.580Z,98503.31
2022-10-23T15:19:15.225Z,98497.25
2022-10-23T15:21:48.935Z,98498.00
2022-10-23T15:24:19.758Z,98504.56
2022-10-23T15:26:49.844Z,98499.81
2022-10-23T15:29:19.360Z,98488.97
2022-10-23T15:31:50.486Z,98497.13
2022-10-23T15:34:21.288Z,98498.97
2022-10-23T15:36:51.518Z,98488.38
2022-10-23T15:39:22.916Z,98480.44
2022-10-23T15:41:52.536Z,98475.41
2022-10-23T15:44:22.586Z,98463.81
2022-10-23T15:46:51.606Z,98453.81
2022-10-23T15:49:20.551Z,98468.84
2022-10-23T15:51:49.443Z,98457.25
2022-10-23T15:54:20.565Z,98465.16
2022-10-23T15:56:50.981Z,98467.00
2022-10-23T15:59:20.840Z,98465.97
2022-10-23T16:01:50.029Z,98450.69
2022-10-23T16:04:18.945Z,98454.66
2022-10-23T16:06:47.671Z,98460.22
2022-10-23T16:09:17.018Z,98450.44
2022-10-23T16:11:46.989Z,98464.97
2022-10-23T16:14:17.411Z,98470.81
2022-10-23T16:16:46.083Z,98478.22
2022-10-23T16:19:15.074Z,98479.31
2022-10-23T16:21:43.903Z,98483.28
2022-10-23T16:24:12.666Z,98498.06
2022-10-23T16:26:41.939Z,98493.03
2022-10-23T16:29:12.520Z,98512.06
2022-10-23T16:31:41.174Z,98482.47
2022-10-23T16:34:12.316Z,98489.34
2022-10-23T16:36:41.777Z,98493.91
2022-10-23T16:39:11.542Z,98484.66
2022-10-23T16:41:40.294Z,98475.63
2022-10-23T16:44:09.250Z,98484.63
2022-10-23T16:46:40.124Z,98461.63
2022-10-23T16:49:09.436Z,98480.88
2022-10-23T16:51:38.093Z,98483.28
2022-10-23T16:54:07.115Z,98453.16
2022-10-23T16:56:36.125Z,98467.72
2022-10-23T16:59:05.452Z,98462.69
2022-10-23T17:01:34.837Z,98470.38
2022-10-23T17:04:07.100Z,98462.72
2022-10-23T17:06:36.290Z,98467.22
2022-10-23T17:09:05.500Z,98461.94
2022-10-23T17:11:35.806Z,98474.13
2022-10-23T17:14:06.995Z,98483.66
2022-10-23T17:16:37.396Z,98494.72
2022-10-23T17:19:15.966Z,98503.19
2022-10-23T17:21:49.702Z,98496.06
2022-10-23T17:24:18.395Z,98494.72
2022-10-23T17:26:47.209Z,98506.06
2022-10-23T17:29:16.113Z,98514.00
2022-10-23T17:31:46.261Z,98490.22
2022-10-23T17:34:18.560Z,98496.81
2022-10-23T17:36:49.247Z,98520.34
2022-10-23T17:39:20.153Z,98540.94
2022-10-23T17:41:49.539Z,98557.59
2022-10-23T17:44:18.451Z,98539.63
2022-10-23T17:46:47.258Z,98538.31
2022-10-23T17:49:17.330Z,98531.72
2022-10-23T17:51:45.980Z,98539.88
2022-10-23T17:54:14.632Z,98562.34
2022-10-23T17:56:43.259Z,98543.06
2022-10-23T17:59:15.077Z,98540.44
2022-10-23T18:01:46.447Z,98553.38
2022-10-23T18:04:17.897Z,98538.31
2022-10-23T18:06:48.335Z,98530.66
2022-10-23T18:09:17.196Z,98525.91
2022-10-23T18:11:48.464Z,98545.16
2022-10-23T18:14:18.730Z,98529.31
2022-10-23T18:16:47.947Z,98522.72
2022-10-23T18:19:19.425Z,98547.03
2022-10-23T18:21:48.870Z,98563.41
2022-10-23T18:24:18.437Z,98577.13
2022-10-23T18:26:48.051Z,98573.69
2022-10-23T18:29:18.275Z,98590.59
2022-10-23T18:31:48.052Z,98591.13
2022-10-23T18:34:21.262Z,98600.38
2022-10-23T18:36:52.079Z,98605.13
2022-10-23T18:39:23.006Z,98614.63
2022-10-23T18:41:53.637Z,98623.59
2022-10-23T18:44:23.239Z,98626.50
2022-10-23T18:46:52.474Z,98644.16
2022-10-23T18:49:22.610Z,98647.84
2022-10-23T18:51:51.518Z,98653.38
2022-10-23T18:54:21.964Z,98633.31
2022-10-23T18:56:50.797Z,98632.00
2022-10-23T18:59:21.377Z,98622.53
2022-10-23T19:01:50.868Z,98618.28
2022-10-23T19:04:19.818Z,98646.28
2022-10-23T19:06:50.998Z,98655.78
2022-10-23T19:09:20.151Z,98662.91
2022-10-23T19:11:48.979Z,98661.81
2022-10-23T19:14:17.684Z,98658.38
2022-10-23T19:16:53.516Z,98647.31
2022-10-23T19:19:24.455Z,98650.97
2022-10-23T19:21:54.924Z,98664.19
2022-10-23T19:24:25.494Z,98658.91
2022-10-23T19:26:55.430Z,98643.06
2022-10-23T19:29:26.508Z,98648.59
2022-10-23T19:31:55.282Z,98661.53
2022-10-23T19:34:25.017Z,98680.81
2022-10-23T19:36:56.900Z,98659.94
2022-10-23T19:39:25.998Z,98679.78
2022-10-23T19:41:55.273Z,98665.25
2022-10-23T19:44:24.071Z,98661.81
2022-10-23T19:46:52.830Z,98658.91
2022-10-23T19:49:23.809Z,98656.25
2022-10-23T19:51:52.572Z,98660.22
2022-10-23T19:54:22.717Z,98660.22
2022-10-23T19:56:51.392Z,98653.88
2022-10-23T19:59:20.041Z,98670.78
2022-10-23T20:01:49.424Z,98658.59
2022-10-23T20:04:18.869Z,98652.56
2022-10-23T20:06:48.320Z,98647.78
2022-10-23T20:09:17.717Z,98656.22
2022-10-23T20:11:49.239Z,98666.78
2022-10-23T20:14:20.524Z,98668.91
2022-10-23T20:16:53.533Z,98657.31
2022-10-23T20:19:24.680Z,98667.31
2022-10-23T20:21:55.968Z,98673.63
2022-10-23T20:24:25.815Z,98665.72
2022-10-23T20:26:57.257Z,98666.22
2022-10-23T20:29:31.833Z,98659.34
2022-10-23T20:32:00.450Z,98657.78
2022-10-23T20:34:31.272Z,98664.38
2022-10-23T20:37:00.845Z,98658.09
2022-10-23T20:39:29.664Z,98665.50
2022-10-23T20:42:00.266Z,98667.13
2022-10-23T20:44:30.281Z,98668.44
2022-10-23T20:47:01.627Z,98667.41
2022-10-23T20:49:30.477Z,98666.13
2022-10-23T20:51:59.134Z,98676.44
2022-10-23T20:54:28.649Z,98670.13
2022-10-23T20:56:58.827Z,98673.28
2022-10-23T20:59:27.572Z,98682.31
2022-10-23T21:01:57.089Z,98671.78
2022-10-23T21:04:27.894Z,98678.91
2022-10-23T21:07:09.874Z,98677.88
2022-10-23T21:09:39.702Z,98685.78
2022-10-23T21:12:10.253Z,98694.81
2022-10-23T21:14:39.670Z,98691.38
2022-10-23T21:17:10.661Z,98686.06
2022-10-23T21:19:40.618Z,98699.03
2022-10-23T21:22:09.352Z,98695.59
2022-10-23T21:24:38.117Z,98696.38
2022-10-23T21:27:07.167Z,98704.31
2022-10-23T21:29:37.235Z,98711.19
2022-10-23T21:32:06.225Z,98719.13
2022-10-23T21:34:35.011Z,98712.50
2022-10-23T21:37:12.873Z,98709.88
2022-10-23T21:39:42.214Z,98712.78
2022-10-23T21:42:11.195Z,98692.94
2022-10-23T21:44:41.222Z,98706.41
2022-10-23T21:47:09.898Z,98710.91
2022-10-23T21:49:38.587Z,98715.16
2022-10-23T21:52:07.254Z,98694.22
2022-10-23T21:54:36.455Z,98696.53
2022-10-23T21:57:05.417Z,98696.53
2022-10-23T21:59:35.931Z,98696.03
2022-10-23T22:02:06.403Z,98698.16
2022-10-23T22:04:35.145Z,98684.91
2022-10-23T22:07:03.814Z,98675.91
2022-10-23T22:09:33.613Z,98673.25
2022-10-23T22:12:02.641Z,98667.44
2022-10-23T22:14:31.286Z,98661.84
2022-10-23T22:17:00.117Z,98658.16
2022-10-23T22:19:30.216Z,98656.31
2022-10-23T22:21:59.029Z,98652.63
2022-10-23T22:24:27.978Z,98668.25
2022-10-23T22:26:57.285Z,98667.69
2022-10-23T22:29:27.840Z,98657.41
2022-10-23T22:31:56.774Z,98655.03
2022-10-23T22:34:48.451Z,98659.25
2022-10-23T22:37:17.279Z,98645.28
2022-10-23T22:39:45.941Z,98652.13
2022-10-23T22:42:14.545Z,98653.72
2022-10-23T22:44:43.206Z,98655.56
2022-10-23T22:47:11.826Z,98647.91
2022-10-23T22:49:40.736Z,98662.72
2022-10-23T22:52:09.376Z,98647.66
2022-10-23T22:54:39.461Z,98647.38
2022-10-23T22:57:08.054Z,98656.09
2022-10-23T22:59:36.801Z,98654.00
2022-10-23T23:02:05.419Z,98669.38
2022-10-23T23:04:38.631Z,98672.81
2022-10-23T23:07:08.703Z,98669.59
2022-10-23T23:09:40.060Z,98667.50
2022-10-23T23:12:10.069Z,98667.50
2022-10-23T23:14:39.042Z,98674.66
2022-10-23T23:17:08.385Z,98666.72
2022-10-23T23:19:37.506Z,98678.13
2022-10-23T23:22:06.328Z,98681.56
2022-10-23T23:24:35.015Z,98674.69
2022-10-23T23:27:05.168Z,98685.81
2022-10-23T23:29:33.805Z,98689.75
2022-10-23T23:32:02.474Z,98683.16
2022-10-23T23:34:31.254Z,98682.34
2022-10-23T23:37:00.190Z,98678.13
2022-10-23T23:39:29.566Z,98686.06
2022-10-23T23:41:58.239Z,98683.69
2022-10-23T23:44:28.269Z,98681.56
2022-10-23T23:46:57.066Z,98669.94
2022-10-23T23:49:25.728Z,98674.19
2022-10-23T23:51:54.342Z,98657.50
2022-10-23T23:54:23.106Z,98669.66
2022-10-23T23:56:52.157Z,98668.63
2022-10-23T23:59:20.774Z,98672.03
